EDLN/MGL METAR and TAF weather

Enter ICAO airport designator
Station Type Date Time Source
EDLN METAR 2019/04/19 18:20 UTC NOAA

EDLN 191820Z 03004KT CAVOK 19/03 Q1027


Station Type Date Time Source
EDLN Decoded METAR 2019/04/19 18:20 UTC NOAA

Monchengladbach, Germany (EDLN) 51-13-49N 006-30-16E
Apr 19, 2019 - 02:20 PM EDT / 2019.04.19 1820 UTC
Wind: from the NNE (030 degrees) at 5 MPH (4 KT):0
Visibility: greater than 7 mile(s):0
Temperature: 66 F (19 C)
Dew Point: 37 F (3 C)
Relative Humidity: 34%
Pressure (altimeter): 30.33 in. Hg (1027 hPa)
ob: EDLN 191820Z 03004KT CAVOK 19/03 Q1027
cycle: 18

Station Type Date Time Source
EDLN TAF 2010/02/22 14:20 UTC NOAA

METAR EDLN 221420Z 18010G20KT 090V240 9999 SCT030 BKN045 11/06 Q0986
RMK ATIS R=

Example: see airport list